Hilo, HI

9:53 PM HST on August 24, 2016 (GMT -1000)
Sunrise Estates | | Change Station

Elev 413 ft 19.70 °N, 155.10 °W | Updated 39 seconds ago

Overcast
Overcast
75.0 °F
Feels Like 74 °F
N
0.0
Wind Variable Wind from SSW
Gusts 0.0 mph

Today
High -- | Low -- °F
--% Chance of Precip.
Yesterday
High -- | Low -- °F
Precip. -- in
Pressure 30.07 in
Visibility 10.0 miles
Clouds Overcast 3300 ft
Heat Index 74 °F
Dew Point 72 °F
Humidity 91%
Rainfall 6.21 in
Snow Depth Not available.
6:03 AM 6:41 PM
Waning Gibbous, 48% visible
METAR PHTO 250653Z 25004KT 10SM OVC033 24/22 A3007 RMK AO2 SLP182 T02440222
Pressure 30.07 in
Visibility 10.0 miles
Clouds Overcast 3300 ft
Heat Index 74 °F
Dew Point 72 °F
Humidity 91%
Rainfall 6.21 in
Snow Depth Not available.
6:03 AM 6:41 PM
Waning Gibbous, 48% visible
METAR PHTO 250653Z 25004KT 10SM OVC033 24/22 A3007 RMK AO2 SLP182 T02440222

10-Day Weather Forecast

Almanac

Astronomy

Aug. 24, 2016 Rise Set
Actual Time
Civil Twilight
Nautical Twilight
Astronomical Twilight
Moon
Length of Visible Light
Length of Day
Tomorrow will be .
, % of the Moon is Illuminated

Today's Extremes

State Highs State Lows

Community

WunderPhotos

Upload Photos

1,934,814 photos uploaded!

WunderBlog® & News

Nearby

Air Quality

  Air Quality AQ Index Pollutant
Not available.

Snow Depth

Station Depth Elevation

Earthquake Activity

City Distance Mag. Time & Date
Minimum magnitude displayed is 2.5.

Coastal Water Temperatures

Place Temperature

Stations

Nearby Weather Stations

Station Location Temp. Windchill Dew Point Humidity Wind Precip. Elev Updated Type
                   

Watches & Warnings

There are currently no watches in effect.